Time;durP1;ratioP1;P1;durP2;ratioP2;P2;SDS_P1;SDS_P2;PMS_P1;PMS_P2;Temp;Humidity;BMP_temperature;BMP_pressure;BME280_temperature;BME280_humidity;BME280_pressure;Samples;Min_cycle;Max_cycle;Signal;HPM_P1;HPM_P2
2021/05/02 00:01:57;;;;;;;12.68;6.15;;;;;;;18.88;74.84;99141.84;5063412;28;20404;-63
2021/05/02 00:04:23;;;;;;;17.45;7.03;;;;;;;18.86;74.72;99145.19;5071555;28;20104;-63
2021/05/02 00:06:48;;;;;;;16.00;7.07;;;;;;;18.86;74.66;99136.66;5076587;28;20035;-63
2021/05/02 00:09:14;;;;;;;20.65;7.05;;;;;;;18.81;74.87;99143.81;5076945;28;20264;-63
2021/05/02 00:11:39;;;;;;;14.23;7.18;;;;;;;18.78;75.10;99136.25;5076316;28;20028;-63
2021/05/02 00:14:05;;;;;;;17.13;7.20;;;;;;;18.80;75.00;99139.41;5076578;28;20028;-65
2021/05/02 00:16:30;;;;;;;14.48;7.10;;;;;;;18.78;74.81;99124.88;5076474;28;20056;-65
2021/05/02 00:18:56;;;;;;;14.60;6.75;;;;;;;18.73;75.40;99122.72;5076667;28;20070;-65
2021/05/02 00:21:24;;;;;;;23.00;6.90;;;;;;;18.74;75.06;99127.13;5076928;28;20442;-63
2021/05/02 00:23:50;;;;;;;19.33;7.32;;;;;;;18.74;74.76;99118.59;5076153;28;20434;-63
2021/05/02 00:26:16;;;;;;;17.55;7.00;;;;;;;18.73;74.34;99114.19;5076131;28;20024;-63
2021/05/02 00:28:49;;;;;;;25.42;6.78;;;;;;;18.76;72.68;99116.03;5076286;28;20028;-63
2021/05/02 00:31:15;;;;;;;17.00;6.35;;;;;;;18.81;71.63;99118.19;5076114;28;20021;-63
2021/05/02 00:33:42;;;;;;;14.60;5.88;;;;;;;18.84;70.88;99117.22;5076070;28;20040;-64
2021/05/02 00:36:08;;;;;;;22.83;6.35;;;;;;;18.89;70.43;99123.50;5076347;28;20024;-63
2021/05/02 00:38:38;;;;;;;23.13;6.72;;;;;;;18.97;69.78;99124.69;5075842;28;20025;-63
2021/05/02 00:41:09;;;;;;;18.95;6.65;;;;;;;18.99;68.88;99124.97;5076109;28;20053;-64
2021/05/02 00:43:36;;;;;;;20.40;6.47;;;;;;;19.02;68.19;99119.09;5075882;28;20024;-63
2021/05/02 00:46:17;;;;;;;15.75;6.22;;;;;;;19.05;68.18;99132.34;5076032;28;20028;-63
2021/05/02 00:49:19;;;;;;;25.55;7.13;;;;;;;19.08;68.22;99134.19;5075712;28;20442;-64
2021/05/02 00:51:57;;;;;;;18.42;5.95;;;;;;;19.09;68.38;99126.44;5075452;28;20385;-64
2021/05/02 00:54:47;;;;;;;19.85;6.00;;;;;;;19.07;68.05;99118.38;5073605;28;20317;-63
2021/05/02 00:57:25;;;;;;;17.65;5.82;;;;;;;19.05;68.50;99123.78;5075431;28;20056;-63
2021/05/02 01:00:01;;;;;;;16.65;6.13;;;;;;;19.04;68.30;99121.44;5062845;28;20024;-64
2021/05/02 01:02:28;;;;;;;25.42;7.38;;;;;;;19.05;68.50;99123.00;5075993;28;20016;-63
2021/05/02 01:04:58;;;;;;;22.77;6.80;;;;;;;19.04;67.89;99124.28;5074620;28;20024;-64
2021/05/02 01:07:28;;;;;;;18.77;5.78;;;;;;;19.07;67.96;99126.16;5076207;28;20024;-63
2021/05/02 01:10:02;;;;;;;19.05;5.88;;;;;;;19.05;67.63;99114.47;5075717;28;20363;-63
2021/05/02 01:12:31;;;;;;;28.88;6.18;;;;;;;19.10;67.03;99122.31;5075303;28;20074;-63
2021/05/02 01:14:58;;;;;;;22.05;4.95;;;;;;;19.08;66.84;99110.63;5075685;28;20478;-63
2021/05/02 01:17:26;;;;;;;19.25;5.68;;;;;;;19.11;66.95;99101.88;5075717;28;20035;-62
2021/05/02 01:19:53;;;;;;;21.98;5.40;;;;;;;19.13;66.83;99099.34;5075633;28;20328;-63
2021/05/02 01:22:20;;;;;;;21.23;5.55;;;;;;;19.13;66.30;99099.34;5075342;28;20021;-64
2021/05/02 01:24:51;;;;;;;27.88;6.72;;;;;;;19.13;66.61;99104.25;5075398;28;20032;-63
2021/05/02 01:27:25;;;;;;;22.80;5.10;;;;;;;19.16;67.58;99108.94;5075266;28;20319;-63
2021/05/02 01:29:51;;;;;;;18.27;5.15;;;;;;;19.21;68.08;99116.03;5075496;28;20028;-63
2021/05/02 01:32:16;;;;;;;15.68;5.13;;;;;;;19.16;70.22;99117.50;5075448;28;20024;-62
2021/05/02 01:34:43;;;;;;;14.85;5.03;;;;;;;19.10;71.71;99110.94;5075421;28;20035;-63
2021/05/02 01:37:08;;;;;;;13.32;4.40;;;;;;;18.98;72.55;99109.19;5076241;28;20107;-63
2021/05/02 01:39:34;;;;;;;15.65;4.53;;;;;;;18.93;74.48;99121.25;5082085;28;20370;-63
2021/05/02 01:42:00;;;;;;;12.25;4.15;;;;;;;18.84;75.27;99117.22;5082051;28;20115;-63
2021/05/02 01:44:25;;;;;;;19.00;3.92;;;;;;;18.80;76.02;99115.84;5082185;28;20033;-63
2021/05/02 01:46:52;;;;;;;17.13;3.85;;;;;;;18.77;76.28;99106.22;5081796;28;20039;-62
2021/05/02 01:49:20;;;;;;;25.23;4.85;;;;;;;18.71;77.71;99119.56;5081952;28;20056;-63
2021/05/02 01:51:45;;;;;;;9.98;3.50;;;;;;;18.63;77.93;99106.22;5081704;28;20036;-63
2021/05/02 01:54:14;;;;;;;17.23;3.83;;;;;;;18.57;78.48;99102.44;5081874;28;20024;-63
2021/05/02 01:56:41;;;;;;;17.38;4.30;;;;;;;18.57;77.57;99097.53;5081670;28;20047;-62
2021/05/02 01:59:08;;;;;;;13.55;4.00;;;;;;;18.56;77.93;99092.34;5082234;28;20053;-63
2021/05/02 02:01:33;;;;;;;11.35;3.15;;;;;;;18.59;77.86;99088.50;5081478;28;20048;-63
2021/05/02 02:04:04;;;;;;;14.73;3.50;;;;;;;18.59;77.21;99091.34;5081820;28;20025;-62
2021/05/02 02:06:31;;;;;;;12.82;3.63;;;;;;;18.59;77.68;99086.44;5081643;28;20033;-63
2021/05/02 02:08:58;;;;;;;13.65;3.42;;;;;;;18.59;77.83;99075.06;5081616;28;20125;-62
2021/05/02 02:11:28;;;;;;;12.43;3.35;;;;;;;18.59;78.27;99075.06;5082078;28;20078;-62
2021/05/02 02:13:55;;;;;;;13.68;3.50;;;;;;;18.58;78.40;99064.97;5081598;28;20386;-62
2021/05/02 02:16:22;;;;;;;11.77;3.30;;;;;;;18.50;78.82;99058.88;5081684;28;20021;-62
2021/05/02 02:18:48;;;;;;;10.13;3.30;;;;;;;18.47;78.95;99068.41;5080442;28;20024;-63
2021/05/02 02:21:14;;;;;;;9.90;3.83;;;;;;;18.45;78.67;99062.41;5081545;28;20025;-62
2021/05/02 02:23:42;;;;;;;8.77;3.25;;;;;;;18.45;78.82;99061.63;5081615;28;20021;-62
2021/05/02 02:26:19;;;;;;;10.32;3.88;;;;;;;18.47;78.85;99067.59;5081503;28;20031;-63
2021/05/02 02:28:47;;;;;;;8.52;3.58;;;;;;;18.45;79.21;99065.25;5081746;28;20032;-63
2021/05/02 02:31:13;;;;;;;9.40;3.67;;;;;;;18.42;79.24;99056.91;5081486;28;20016;-63
2021/05/02 02:33:41;;;;;;;15.10;3.80;;;;;;;18.38;79.39;99056.31;5081381;28;20039;-62
2021/05/02 02:36:10;;;;;;;15.30;3.97;;;;;;;18.36;79.60;99056.81;5081694;28;20099;-63
2021/05/02 02:38:35;;;;;;;9.75;3.60;;;;;;;18.34;79.92;99058.56;5081706;28;20039;-62
2021/05/02 02:41:02;;;;;;;12.60;3.42;;;;;;;18.32;79.69;99058.25;5081504;28;20045;-62
2021/05/02 02:43:31;;;;;;;15.93;4.30;;;;;;;18.31;79.64;99062.38;5081591;28;20036;-62
2021/05/02 02:45:59;;;;;;;17.35;3.85;;;;;;;18.37;79.03;99054.75;5081424;28;20035;-63
2021/05/02 02:48:29;;;;;;;14.88;4.25;;;;;;;18.34;79.24;99055.72;5081243;28;20373;-62
2021/05/02 02:50:59;;;;;;;10.68;3.63;;;;;;;18.30;79.19;99055.13;5076978;28;20028;-62
2021/05/02 02:53:29;;;;;;;9.38;3.38;;;;;;;18.29;79.06;99047.84;5078424;28;20075;-62
2021/05/02 02:56:27;;;;;;;12.48;4.22;;;;;;;18.25;79.28;99047.28;5077955;28;20032;-62
2021/05/02 02:58:57;;;;;;;10.20;3.70;;;;;;;18.21;79.08;99051.09;5075744;28;20488;-62
2021/05/02 03:01:24;;;;;;;13.60;3.53;;;;;;;18.22;78.99;99057.56;5077717;28;20582;-62
2021/05/02 03:03:52;;;;;;;7.95;3.50;;;;;;;18.20;79.01;99055.22;5077910;28;20304;-62
2021/05/02 03:06:19;;;;;;;11.18;3.38;;;;;;;18.19;79.35;99055.69;5078145;28;20411;-63
2021/05/02 03:08:47;;;;;;;12.63;4.55;;;;;;;18.17;79.43;99053.34;5077759;28;20028;-62
2021/05/02 03:11:15;;;;;;;6.50;3.55;;;;;;;18.15;79.39;99067.25;5077740;28;20448;-63
2021/05/02 03:13:43;;;;;;;10.20;4.30;;;;;;;18.12;79.51;99073.13;5077550;28;20024;-63
2021/05/02 03:16:08;;;;;;;10.63;3.92;;;;;;;18.09;79.96;99069.22;5077984;28;20028;-63
2021/05/02 03:18:58;;;;;;;12.13;4.22;;;;;;;18.09;79.89;99063.53;5076480;28;20039;-63
2021/05/02 03:21:32;;;;;;;12.00;3.72;;;;;;;18.09;80.00;99074.91;5077813;28;20024;-62
2021/05/02 03:24:01;;;;;;;11.95;4.05;;;;;;;18.09;79.81;99068.44;5077779;28;20056;-63
2021/05/02 03:26:28;;;;;;;7.35;4.07;;;;;;;18.08;79.95;99067.66;5077709;28;20024;-63
2021/05/02 03:29:01;;;;;;;9.75;3.60;;;;;;;18.11;79.30;99068.72;5077262;28;20024;-63
2021/05/02 03:31:33;;;;;;;13.88;3.55;;;;;;;18.09;80.30;99074.91;5077512;28;20033;-63
2021/05/02 03:34:03;;;;;;;11.40;3.70;;;;;;;18.09;80.03;99071.28;5077127;28;20107;-64
2021/05/02 03:36:35;;;;;;;13.90;3.20;;;;;;;18.12;79.48;99076.78;5077320;28;20028;-63
2021/05/02 03:39:04;;;;;;;8.32;2.50;;;;;;;18.12;79.88;99084.50;5077162;28;20074;-63
2021/05/02 03:41:33;;;;;;;12.63;3.80;;;;;;;18.13;79.40;99084.03;5077219;28;20094;-63
2021/05/02 03:43:59;;;;;;;8.82;3.25;;;;;;;18.12;79.55;99088.16;5077127;28;20099;-63
2021/05/02 03:46:25;;;;;;;10.57;3.85;;;;;;;18.12;79.76;99087.34;5077379;28;20059;-62
2021/05/02 03:49:02;;;;;;;10.98;3.45;;;;;;;18.13;79.88;99097.47;5077218;28;20024;-63
2021/05/02 03:51:29;;;;;;;10.13;2.83;;;;;;;18.12;80.53;99090.97;5064380;28;20069;-63
2021/05/02 03:53:56;;;;;;;16.27;3.63;;;;;;;18.12;80.05;99093.81;5077157;28;20033;-63
2021/05/02 03:56:34;;;;;;;8.18;3.42;;;;;;;18.13;80.56;99103.16;5076165;28;20304;-63
2021/05/02 03:59:08;;;;;;;8.35;2.83;;;;;;;18.14;80.32;99093.34;5077305;28;20073;-63
2021/05/02 04:01:33;;;;;;;6.65;2.30;;;;;;;18.12;79.76;99099.50;5076210;28;20017;-63
2021/05/02 04:03:59;;;;;;;7.65;2.70;;;;;;;18.09;80.27;99089.13;5075585;28;20177;-63
2021/05/02 04:06:28;;;;;;;8.85;2.97;;;;;;;18.07;80.27;99088.78;5076750;28;20425;-63
2021/05/02 04:08:54;;;;;;;6.85;2.67;;;;;;;18.10;80.26;99104.91;5076637;28;20031;-63
2021/05/02 04:11:20;;;;;;;7.55;2.80;;;;;;;18.11;79.64;99103.63;5076779;28;20028;-63
2021/05/02 04:13:45;;;;;;;12.70;2.67;;;;;;;18.12;80.32;99096.69;5076480;28;20025;-63
2021/05/02 04:16:16;;;;;;;8.77;2.40;;;;;;;18.10;80.51;99102.06;5076786;28;20289;-62
2021/05/02 04:18:42;;;;;;;7.50;2.45;;;;;;;18.11;80.11;99106.47;5076389;28;20028;-63
2021/05/02 04:21:09;;;;;;;8.88;2.53;;;;;;;18.15;80.04;99097.75;5076613;28;20138;-63
2021/05/02 04:23:34;;;;;;;5.85;2.05;;;;;;;18.17;80.06;99101.69;5076402;28;20023;-63
2021/05/02 04:26:00;;;;;;;6.75;2.58;;;;;;;18.18;80.24;99106.09;5076429;28;20589;-63
2021/05/02 04:28:25;;;;;;;6.90;2.55;;;;;;;18.20;80.14;99109.25;5076510;28;20070;-63
2021/05/02 04:30:50;;;;;;;4.28;2.28;;;;;;;18.21;80.42;99116.50;5075693;28;20088;-63
2021/05/02 04:33:15;;;;;;;7.03;2.42;;;;;;;18.25;80.72;99109.84;5073920;28;20633;-63
2021/05/02 04:35:41;;;;;;;7.95;2.28;;;;;;;18.29;80.31;99111.22;5076064;28;20419;-63
2021/05/02 04:38:06;;;;;;;8.02;2.35;;;;;;;18.31;80.25;99113.56;5075940;28;20108;-63
2021/05/02 04:40:31;;;;;;;4.85;2.05;;;;;;;18.32;80.07;99113.09;5076059;28;20043;-63
2021/05/02 04:42:57;;;;;;;8.20;2.28;;;;;;;18.33;79.98;99119.56;5076333;28;20025;-63
2021/05/02 04:45:22;;;;;;;5.75;2.40;;;;;;;18.38;80.32;99130.28;5071011;28;20028;-63
2021/05/02 04:47:47;;;;;;;10.95;2.97;;;;;;;18.42;80.01;99125.19;5076174;28;20308;-62
2021/05/02 04:50:13;;;;;;;6.97;2.22;;;;;;;18.46;79.69;99131.47;5075849;28;20331;-62
2021/05/02 04:52:40;;;;;;;7.57;2.42;;;;;;;18.51;79.94;99137.25;5074736;28;20110;-63
2021/05/02 04:55:06;;;;;;;6.63;2.47;;;;;;;18.53;79.48;99129.03;5075994;28;20102;-63
2021/05/02 04:57:32;;;;;;;9.98;2.60;;;;;;;18.56;78.68;99123.63;5075896;28;20020;-63
2021/05/02 04:59:57;;;;;;;7.95;2.63;;;;;;;18.57;78.87;99128.81;5075512;28;20403;-63
2021/05/02 05:02:22;;;;;;;9.05;2.65;;;;;;;18.58;78.35;99136.09;5076022;28;20016;-62
2021/05/02 05:04:47;;;;;;;11.18;2.70;;;;;;;18.61;78.53;99134.31;5075412;28;20099;-62
2021/05/02 05:07:13;;;;;;;4.25;1.98;;;;;;;18.62;77.72;99142.41;5075884;28;20128;-61
2021/05/02 05:09:38;;;;;;;11.98;4.28;;;;;;;18.64;77.39;99145.56;5076149;28;20052;-61
2021/05/02 05:12:04;;;;;;;12.75;3.28;;;;;;;18.70;78.16;99149.31;5074731;28;20031;-61
2021/05/02 05:14:29;;;;;;;9.95;2.50;;;;;;;18.74;78.42;99147.06;5075434;28;20319;-63
2021/05/02 05:16:54;;;;;;;5.78;2.58;;;;;;;18.78;78.20;99147.63;5075527;28;20309;-62
2021/05/02 05:19:20;;;;;;;6.32;2.20;;;;;;;18.79;77.91;99149.22;5075692;28;20021;-62
2021/05/02 05:21:45;;;;;;;7.32;2.67;;;;;;;18.85;78.07;99152.16;5075210;28;20021;-60
2021/05/02 05:24:10;;;;;;;8.00;2.53;;;;;;;18.91;77.68;99161.59;5075732;28;20031;-61
2021/05/02 05:26:36;;;;;;;8.02;3.25;;;;;;;18.89;77.85;99163.34;5075606;28;20358;-63
2021/05/02 05:29:01;;;;;;;8.57;2.83;;;;;;;18.92;77.42;99156.69;5074920;28;20025;-61
2021/05/02 05:31:26;;;;;;;8.00;2.22;;;;;;;18.91;77.19;99155.13;5075523;28;20059;-60
2021/05/02 05:33:52;;;;;;;7.78;2.45;;;;;;;18.95;77.06;99155.72;5075565;28;20484;-61
2021/05/02 05:36:17;;;;;;;7.65;2.30;;;;;;;18.93;77.02;99163.97;5075323;28;20427;-61
2021/05/02 05:38:42;;;;;;;6.95;2.28;;;;;;;18.93;78.26;99152.56;5075302;28;20025;-61
2021/05/02 05:41:08;;;;;;;12.57;2.58;;;;;;;18.95;77.12;99147.19;5075124;28;20048;-60
2021/05/02 05:43:33;;;;;;;14.70;2.67;;;;;;;18.98;77.04;99158.38;5075580;28;20073;-62
2021/05/02 05:45:58;;;;;;;7.82;2.45;;;;;;;18.98;76.83;99160.44;5074939;28;20020;-61
2021/05/02 05:48:24;;;;;;;7.10;2.05;;;;;;;18.99;76.82;99167.69;5075393;28;20081;-60
2021/05/02 05:50:49;;;;;;;9.95;2.60;;;;;;;19.00;77.20;99169.25;5075069;28;20111;-60
2021/05/02 05:53:18;;;;;;;7.93;2.08;;;;;;;19.02;77.02;99178.09;5075126;28;20124;-62
2021/05/02 05:55:43;;;;;;;9.30;2.40;;;;;;;19.04;76.52;99187.72;5075046;28;20020;-74
2021/05/02 05:58:09;;;;;;;7.63;1.80;;;;;;;19.05;76.67;99179.97;5061080;28;20012;-68
2021/05/02 06:00:34;;;;;;;6.95;1.83;;;;;;;19.08;76.15;99184.66;5075160;28;20074;-71
2021/05/02 06:03:00;;;;;;;8.70;2.55;;;;;;;19.10;76.93;99182.13;5075034;28;20028;-60
2021/05/02 06:05:25;;;;;;;5.45;1.83;;;;;;;19.16;75.91;99188.69;5061228;28;20029;-61
2021/05/02 06:07:50;;;;;;;9.98;2.40;;;;;;;19.17;76.63;99190.25;5073921;28;20060;-60
2021/05/02 06:10:16;;;;;;;9.23;2.10;;;;;;;19.18;75.58;99189.03;5075025;28;20293;-60
2021/05/02 06:12:41;;;;;;;6.22;1.90;;;;;;;19.21;75.47;99190.88;5075038;28;20031;-61
2021/05/02 06:15:09;;;;;;;8.55;2.10;;;;;;;19.24;76.46;99189.91;5074976;28;20404;-61
2021/05/02 06:17:35;;;;;;;8.20;2.13;;;;;;;19.29;75.86;99197.75;5074096;28;20036;-61
2021/05/02 06:20:00;;;;;;;10.15;3.17;;;;;;;19.33;75.25;99194.69;5075000;28;20024;-60
2021/05/02 06:22:25;;;;;;;9.40;2.28;;;;;;;19.37;74.58;99193.22;5061041;28;20021;-64
2021/05/02 06:24:51;;;;;;;5.30;1.90;;;;;;;19.42;74.26;99191.75;5077920;28;20032;-69
2021/05/02 06:27:16;;;;;;;6.80;1.70;;;;;;;19.47;74.17;99193.13;5076270;28;20061;-61
2021/05/02 06:29:42;;;;;;;9.02;2.53;;;;;;;19.51;73.50;99196.56;5066298;28;20408;-64
2021/05/02 06:32:07;;;;;;;7.55;1.90;;;;;;;19.56;73.41;99205.22;5062975;28;20069;-60
2021/05/02 06:34:33;;;;;;;8.40;1.98;;;;;;;19.61;73.76;99210.22;5070740;28;20024;-62
2021/05/02 06:36:59;;;;;;;9.30;1.80;;;;;;;19.74;72.50;99207.09;5071796;28;20319;-61
2021/05/02 06:39:26;;;;;;;8.43;2.15;;;;;;;19.86;72.44;99200.25;5077886;28;20025;-61
2021/05/02 06:41:51;;;;;;;10.60;1.90;;;;;;;20.01;71.53;99195.31;5078132;28;20047;-60
2021/05/02 06:44:16;;;;;;;9.23;1.70;;;;;;;20.15;72.43;99205.09;5077083;28;20307;-60
2021/05/02 06:46:42;;;;;;;8.40;1.90;;;;;;;20.29;69.71;99203.47;5067967;28;20036;-65
2021/05/02 06:49:08;;;;;;;13.27;2.60;;;;;;;20.45;69.19;99205.78;5078310;28;20086;-64
2021/05/02 06:51:34;;;;;;;8.20;2.30;;;;;;;20.54;67.89;99202.78;5078503;28;20021;-72
2021/05/02 06:54:00;;;;;;;18.65;2.85;;;;;;;20.62;68.39;99201.06;5078201;28;20108;-63
2021/05/02 06:56:26;;;;;;;16.08;2.60;;;;;;;20.73;68.35;99197.56;5077578;28;20107;-64
2021/05/02 06:58:53;;;;;;;24.77;3.88;;;;;;;20.80;65.57;99208.53;5078405;28;20066;-64
2021/05/02 07:01:19;;;;;;;22.05;4.00;;;;;;;20.98;65.19;99201.72;5077853;28;20035;-62
2021/05/02 07:03:45;;;;;;;15.75;2.67;;;;;;;20.99;64.41;99194.72;5077924;28;20183;-62
2021/05/02 07:06:11;;;;;;;11.38;2.88;;;;;;;21.00;63.25;99190.59;5078187;28;20032;-63
2021/05/02 07:08:36;;;;;;;32.05;2.85;;;;;;;21.16;61.38;99206.34;5078304;28;20442;-63
2021/05/02 07:11:02;;;;;;;12.45;2.30;;;;;;;21.16;62.91;99215.69;5077625;28;20112;-64
2021/05/02 07:13:29;;;;;;;18.88;2.55;;;;;;;21.20;61.58;99213.41;5077704;28;20028;-70
2021/05/02 07:15:55;;;;;;;10.38;1.73;;;;;;;21.27;60.99;99217.91;5077565;28;20032;-66
2021/05/02 07:18:20;;;;;;;12.23;2.75;;;;;;;21.32;61.07;99236.38;5077601;28;20028;-62
2021/05/02 07:20:47;;;;;;;20.80;3.10;;;;;;;21.33;60.87;99215.88;5072141;28;20543;-62
2021/05/02 07:23:13;;;;;;;17.15;2.53;;;;;;;21.34;61.30;99213.78;5032199;28;20022;-64
2021/05/02 07:25:38;;;;;;;15.00;2.72;;;;;;;21.46;59.56;99219.13;5037572;28;20017;-60
2021/05/02 07:28:03;;;;;;;15.13;2.03;;;;;;;21.49;60.83;99228.75;5037366;28;20060;-64
2021/05/02 07:30:29;;;;;;;9.30;1.98;;;;;;;21.59;58.08;99221.56;5037535;28;20360;-63
2021/05/02 07:32:54;;;;;;;15.10;2.90;;;;;;;21.70;57.96;99220.88;5029663;28;20033;-63
2021/05/02 07:35:20;;;;;;;8.73;2.15;;;;;;;21.76;58.48;99211.06;5029683;28;20033;-62
2021/05/02 07:37:45;;;;;;;12.90;2.53;;;;;;;21.85;57.12;99227.22;5026193;28;20069;-67
2021/05/02 07:40:12;;;;;;;14.55;2.60;;;;;;;21.95;56.88;99208.59;5034025;28;20049;-63
2021/05/02 07:42:37;;;;;;;15.43;2.63;;;;;;;22.02;57.47;99202.41;5045100;28;20061;-62
2021/05/02 07:45:04;;;;;;;9.10;2.30;;;;;;;22.17;56.35;99225.13;5049559;28;20099;-63
2021/05/02 07:47:29;;;;;;;16.55;2.45;;;;;;;22.21;55.34;99217.13;5052215;28;20025;-62
2021/05/02 07:49:56;;;;;;;13.48;2.65;;;;;;;;;;5049909;28;20075;-62
2021/05/02 07:52:21;;;;;;;15.48;2.65;;;;;;;22.29;55.67;99221.06;5050927;28;20061;-63
2021/05/02 07:54:47;;;;;;;14.25;3.05;;;;;;;22.40;55.30;99214.59;5055831;28;20051;-67
2021/05/02 07:57:12;;;;;;;15.38;2.53;;;;;;;22.46;56.45;99227.66;5057101;28;20086;-63
2021/05/02 07:59:38;;;;;;;21.85;2.85;;;;;;;22.57;54.98;99224.06;5056567;28;20063;-62
2021/05/02 08:02:05;;;;;;;18.98;3.38;;;;;;;22.62;54.82;99214.72;5056588;28;20021;-62
2021/05/02 08:04:30;;;;;;;10.02;2.00;;;;;;;22.67;55.07;99225.41;5057107;28;20412;-63
2021/05/02 08:06:56;;;;;;;18.52;3.10;;;;;;;22.77;55.90;99232.50;5055318;28;20031;-63
2021/05/02 08:09:21;;;;;;;16.23;2.53;;;;;;;22.81;54.65;99230.19;5054771;28;20016;-63
2021/05/02 08:11:46;;;;;;;18.85;2.40;;;;;;;22.84;54.80;99219.00;5054778;28;20083;-62
2021/05/02 08:14:12;;;;;;;12.43;1.87;;;;;;;22.91;54.63;99219.28;5055522;28;20036;-62
2021/05/02 08:16:37;;;;;;;14.40;2.28;;;;;;;22.94;54.04;99215.38;5055732;28;20290;-63
2021/05/02 08:19:03;;;;;;;9.60;1.95;;;;;;;23.02;53.74;99218.53;5055837;28;20024;-63
2021/05/02 08:21:28;;;;;;;12.80;2.00;;;;;;;23.11;52.03;99227.69;5056312;28;20032;-61
2021/05/02 08:23:54;;;;;;;6.35;2.13;;;;;;;23.19;51.52;99227.16;5056195;28;20325;-61
2021/05/02 08:26:20;;;;;;;13.88;2.30;;;;;;;23.26;50.28;99230.28;5056861;28;20305;-61
2021/05/02 08:28:45;;;;;;;9.85;1.60;;;;;;;23.29;50.82;99240.75;5055172;28;20039;-61
2021/05/02 08:31:14;;;;;;;28.70;3.30;;;;;;;23.40;49.34;99235.03;5056343;28;20029;-61
2021/05/02 08:33:39;;;;;;;13.73;2.58;;;;;;;23.39;49.98;99235.53;5056257;28;20082;-61
2021/05/02 08:36:05;;;;;;;13.35;2.47;;;;;;;23.44;50.02;99221.22;5056387;28;20358;-61
2021/05/02 08:38:32;;;;;;;19.65;2.08;;;;;;;23.54;48.94;99233.19;5056106;28;20035;-61
2021/05/02 08:41:02;;;;;;;18.48;2.05;;;;;;;23.56;48.20;99229.88;5056118;28;20328;-63
2021/05/02 08:43:28;;;;;;;12.75;1.88;;;;;;;23.57;49.62;99235.09;5056326;28;20017;-63
2021/05/02 08:45:54;;;;;;;19.90;2.45;;;;;;;23.64;47.71;99233.78;5055804;28;20028;-63
2021/05/02 08:48:21;;;;;;;27.45;2.22;;;;;;;23.68;49.20;99257.25;5054510;28;20025;-62
2021/05/02 08:50:47;;;;;;;22.15;2.88;;;;;;;23.72;47.13;99246.28;5055939;28;20112;-62
2021/05/02 08:53:12;;;;;;;16.38;1.98;;;;;;;23.77;46.62;99253.31;5055712;28;20163;-62
2021/05/02 08:55:41;;;;;;;19.00;1.90;;;;;;;23.79;46.48;99244.97;5056042;28;20470;-63
2021/05/02 08:58:06;;;;;;;18.38;3.00;;;;;;;23.85;47.78;99232.22;5054662;28;20017;-66
2021/05/02 09:00:33;;;;;;;22.25;2.97;;;;;;;24.00;46.53;99252.81;5055814;28;20029;-64
2021/05/02 09:02:58;;;;;;;24.73;2.22;;;;;;;23.93;45.96;99264.03;5055690;28;20039;-62
2021/05/02 09:05:24;;;;;;;29.80;2.78;;;;;;;24.05;45.02;99257.75;5055959;28;20025;-61
2021/05/02 09:07:49;;;;;;;35.90;3.15;;;;;;;24.09;45.60;99262.44;5055371;28;20032;-62
2021/05/02 09:10:18;;;;;;;33.40;2.80;;;;;;;24.10;45.81;99270.53;5055669;28;20060;-62
2021/05/02 09:12:58;;;;;;;18.95;2.25;;;;;;;24.11;46.24;99275.00;5055720;28;20037;-63
2021/05/02 09:15:23;;;;;;;15.88;2.03;;;;;;;24.07;46.25;99273.66;5055450;28;20025;-72
2021/05/02 09:17:58;;;;;;;26.08;2.28;;;;;;;24.15;46.00;99277.59;5055622;28;20021;-66
2021/05/02 09:20:51;;;;;;;13.18;1.63;;;;;;;24.24;45.03;99257.22;5055569;28;20029;-63
2021/05/02 09:23:18;;;;;;;18.95;1.83;;;;;;;24.30;46.29;99250.16;5055655;28;20025;-68
2021/05/02 09:25:53;;;;;;;20.92;2.00;;;;;;;24.36;45.83;99261.66;5055325;28;20027;-65
2021/05/02 09:28:39;;;;;;;50.13;4.13;;;;;;;24.46;45.60;99262.16;5055558;28;20025;-63
2021/05/02 09:31:06;;;;;;;27.50;3.08;;;;;;;24.47;44.11;99264.50;5055127;28;20032;-62
2021/05/02 09:33:31;;;;;;;31.65;3.25;;;;;;;24.52;44.37;99268.66;5055507;28;20028;-65
2021/05/02 09:35:56;;;;;;;24.63;2.50;;;;;;;24.57;43.76;99267.88;5055005;28;20025;-62
2021/05/02 09:38:22;;;;;;;28.10;2.55;;;;;;;24.55;44.57;99259.00;5055178;28;20277;-61
2021/05/02 09:40:55;;;;;;;34.45;2.10;;;;;;;24.65;43.94;99275.44;5054999;28;20447;-61
2021/05/02 09:43:50;;;;;;;25.75;2.88;;;;;;;24.73;44.39;99292.91;5055488;28;20403;-61
2021/05/02 09:48:59;;;;;;;42.20;3.05;;;;;;;24.67;42.26;99334.44;5055111;28;20499;-63
2021/05/02 09:51:27;;;;;;;36.10;2.90;;;;;;;24.35;43.62;99349.88;5055202;28;20067;-64
2021/05/02 09:54:16;;;;;;;16.20;1.85;;;;;;;23.86;43.36;99376.47;5055556;28;20347;-73
2021/05/02 09:56:44;;;;;;;23.90;2.63;;;;;;;23.63;45.52;99382.16;5043294;28;20020;-63
2021/05/02 09:59:34;;;;;;;14.10;2.03;;;;;;;23.34;44.54;99377.59;5056779;28;20438;-62
2021/05/02 10:02:11;;;;;;;12.15;1.05;;;;;;;23.10;44.67;99385.81;5059283;28;20035;-62
2021/05/02 10:04:50;;;;;;;11.32;1.60;;;;;;;22.86;45.45;99411.22;5059020;28;20032;-62
2021/05/02 10:07:17;;;;;;;3.65;1.10;;;;;;;22.67;45.67;99408.69;5059346;28;20099;-63
2021/05/02 10:09:43;;;;;;;10.98;2.28;;;;;;;22.57;47.55;99413.06;5059253;28;20024;-62
2021/05/02 10:12:10;;;;;;;15.63;3.20;;;;;;;22.57;47.19;99418.78;5058717;28;20017;-62
2021/05/02 10:14:42;;;;;;;7.90;1.45;;;;;;;22.51;46.38;99423.69;5059072;28;20079;-62
2021/05/02 10:17:09;;;;;;;11.88;2.42;;;;;;;22.46;46.98;99438.72;5059079;28;20045;-62
2021/05/02 10:19:35;;;;;;;7.85;1.50;;;;;;;22.37;46.91;99439.69;5058708;28;20032;-62
2021/05/02 10:22:01;;;;;;;10.50;1.73;;;;;;;22.23;47.67;99434.13;5058980;28;20079;-63
2021/05/02 10:24:27;;;;;;;5.93;1.10;;;;;;;22.13;47.16;99436.34;5058979;28;20355;-64
2021/05/02 10:26:53;;;;;;;10.98;1.15;;;;;;;22.04;47.00;99443.03;5058421;28;20370;-62
2021/05/02 10:29:26;;;;;;;7.85;1.20;;;;;;;21.97;47.87;99454.13;5058880;28;20063;-61
2021/05/02 10:32:04;;;;;;;6.65;0.98;;;;;;;21.94;47.23;99452.28;5058528;28;20025;-63
2021/05/02 10:34:35;;;;;;;6.70;0.98;;;;;;;21.85;47.56;99445.41;5045964;28;20024;-66
2021/05/02 10:37:29;;;;;;;10.60;1.20;;;;;;;21.79;47.35;99444.56;5058636;28;20347;-72
2021/05/02 10:39:55;;;;;;;7.43;1.25;;;;;;;21.71;47.37;99457.75;5048495;28;20020;-63
2021/05/02 10:42:39;;;;;;;12.63;0.82;;;;;;;21.65;48.06;99471.19;5058216;28;20049;-66
2021/05/02 10:48:14;;;;;;;12.48;0.98;;;;;;;21.58;47.92;99465.88;5045521;28;20102;-66
2021/05/02 10:50:44;;;;;;;5.03;0.60;;;;;;;21.54;46.99;99476.75;5058173;28;20043;-68
2021/05/02 10:53:14;;;;;;;6.25;0.80;;;;;;;21.47;46.47;99494.34;5058038;28;20027;-67
2021/05/02 10:56:05;;;;;;;6.57;0.85;;;;;;;21.42;47.09;99492.97;5058319;28;20114;-61
2021/05/02 10:58:32;;;;;;;2.95;0.32;;;;;;;21.40;48.58;99486.97;5058423;28;20025;-62
2021/05/02 11:01:05;;;;;;;16.35;2.20;;;;;;;21.45;48.02;99489.13;5057913;28;20075;-61
2021/05/02 11:03:39;;;;;;;9.80;0.88;;;;;;;21.54;48.24;99493.91;5057891;28;20036;-61
2021/05/02 11:06:08;;;;;;;2.88;0.60;;;;;;;21.59;47.30;99490.31;5058129;28;20028;-62
2021/05/02 11:08:54;;;;;;;12.57;1.05;;;;;;;21.63;46.97;99501.53;5058004;28;20043;-74
2021/05/02 11:11:37;;;;;;;1.45;0.70;;;;;;;21.69;46.07;99488.91;5056856;28;20404;-61
2021/05/02 11:14:25;;;;;;;5.78;0.70;;;;;;;21.69;46.07;99494.63;5044764;28;20032;-62
2021/05/02 11:16:53;;;;;;;1.23;0.55;;;;;;;21.74;46.63;99499.63;5048184;28;20037;-61
2021/05/02 11:19:37;;;;;;;11.63;2.15;;;;;;;21.77;47.02;99507.19;5057888;28;20025;-62
2021/05/02 11:22:07;;;;;;;21.08;1.40;;;;;;;21.84;46.36;99503.91;5057580;28;20053;-61
2021/05/02 11:24:39;;;;;;;9.60;1.23;;;;;;;21.88;44.92;99512.25;5057781;28;20025;-61
2021/05/02 11:32:32;;;;;;;11.82;0.85;;;;;;;21.93;46.57;99508.69;5057350;28;20037;-62
2021/05/02 11:35:03;;;;;;;7.45;0.98;;;;;;;21.96;45.70;99501.19;5047602;28;20024;-62
2021/05/02 11:37:47;;;;;;;6.50;1.00;;;;;;;21.98;46.37;99504.31;5057150;28;20075;-63
2021/05/02 11:40:28;;;;;;;16.60;1.30;;;;;;;22.05;46.71;99506.78;5057682;28;20028;-62
2021/05/02 11:43:02;;;;;;;24.05;3.50;;;;;;;22.12;46.23;99495.66;5043619;28;20120;-62
2021/05/02 11:45:40;;;;;;;9.55;1.88;;;;;;;22.17;46.08;99494.16;5057682;28;20047;-62
2021/05/02 11:48:07;;;;;;;4.80;1.05;;;;;;;22.23;46.03;99497.88;5057228;28;20029;-62